Time;durP1;ratioP1;P1;durP2;ratioP2;P2;SDS_P1;SDS_P2;PMS_P1;PMS_P2;Temp;Humidity;BMP_temperature;BMP_pressure;BME280_temperature;BME280_humidity;BME280_pressure;Samples;Min_cycle;Max_cycle;Signal;HPM_P1;HPM_P2
2021/12/23 00:01:42;;;;;;;50.90;20.17;;;-2.20;74.30;;;;;;4943132;29;20240;-52
2021/12/23 00:04:10;;;;;;;56.03;20.67;;;-2.30;1.00;;;;;;4940242;29;20226;-51
2021/12/23 00:06:36;;;;;;;52.67;18.80;;;-2.20;42.80;;;;;;4925342;29;20839;-59
2021/12/23 00:09:04;;;;;;;52.30;21.10;;;-2.20;1.00;;;;;;4947494;29;20449;-51
2021/12/23 00:11:29;;;;;;;48.30;19.10;;;-2.20;1.00;;;;;;4943465;29;20457;-52
2021/12/23 00:14:02;;;;;;;60.23;22.60;;;-2.10;1.00;;;;;;4943823;29;20446;-52
2021/12/23 00:16:47;;;;;;;48.73;19.37;;;-2.20;99.90;;;;;;4942397;29;20199;-51
2021/12/23 00:19:36;;;;;;;48.07;19.30;;;-2.20;99.90;;;;;;4942174;28;20937;-51
2021/12/23 00:24:49;;;;;;;49.30;20.20;;;-2.30;99.90;;;;;;4942988;29;20428;-51
2021/12/23 00:27:15;;;;;;;58.20;18.77;;;-2.20;1.00;;;;;;4939856;29;20944;-52
2021/12/23 00:29:41;;;;;;;52.23;20.20;;;-2.20;1.00;;;;;;4926926;29;20540;-52
2021/12/23 00:32:08;;;;;;;59.10;20.23;;;-2.10;99.90;;;;;;4942663;29;20530;-51
2021/12/23 00:34:35;;;;;;;49.53;19.63;;;-2.10;1.00;;;;;;4945557;29;21762;-51
2021/12/23 00:37:02;;;;;;;49.63;20.20;;;-2.20;99.90;;;;;;4947825;29;20539;-52
2021/12/23 00:39:29;;;;;;;60.53;20.57;;;-2.10;99.90;;;;;;4943238;29;20449;-51
2021/12/23 00:41:56;;;;;;;59.63;22.13;;;-2.30;99.90;;;;;;4942890;29;20509;-52
2021/12/23 00:44:22;;;;;;;49.47;20.67;;;-2.20;99.90;;;;;;4943284;29;20932;-52
2021/12/23 00:46:47;;;;;;;52.03;19.90;;;-2.10;99.90;;;;;;4940041;29;20502;-52
2021/12/23 00:49:13;;;;;;;50.67;18.20;;;-2.20;99.90;;;;;;4941056;29;20285;-51
2021/12/23 00:51:39;;;;;;;57.70;18.40;;;-2.20;99.90;;;;;;4941477;29;20238;-51
2021/12/23 00:54:04;;;;;;;51.13;19.63;;;-2.20;99.90;;;;;;4943260;29;20526;-52
2021/12/23 00:56:37;;;;;;;58.40;20.00;;;-2.10;1.00;;;;;;4944145;29;20197;-52
2021/12/23 00:59:08;;;;;;;46.30;19.90;;;-2.10;1.00;;;;;;4941039;29;21150;-51
2021/12/23 01:01:33;;;;;;;54.80;19.20;;;-2.10;1.00;;;;;;4943256;29;20445;-51
2021/12/23 01:03:59;;;;;;;51.50;19.40;;;-2.20;1.00;;;;;;4943905;29;20999;-51
2021/12/23 01:06:24;;;;;;;55.47;19.37;;;-2.20;1.00;;;;;;4940495;29;20213;-51
2021/12/23 01:08:50;;;;;;;57.27;21.53;;;-2.20;1.00;;;;;;4944178;29;20213;-51
2021/12/23 01:11:16;;;;;;;58.17;20.13;;;-2.20;13.30;;;;;;4940277;29;20277;-51
2021/12/23 01:13:48;;;;;;;56.67;20.77;;;-2.20;99.90;;;;;;4943333;29;20229;-51
2021/12/23 01:16:26;;;;;;;54.70;21.23;;;-2.20;99.90;;;;;;4942209;29;20450;-51
2021/12/23 01:18:54;;;;;;;53.50;19.80;;;-2.20;99.90;;;;;;4948710;28;20970;-51
2021/12/23 01:21:20;;;;;;;55.00;21.17;;;-2.20;99.90;;;;;;4940544;29;20458;-51
2021/12/23 01:23:51;;;;;;;55.70;20.47;;;-2.10;99.90;;;;;;4942675;29;20489;-51
2021/12/23 01:26:20;;;;;;;53.80;19.53;;;-2.00;34.50;;;;;;4941229;29;20190;-51
2021/12/23 01:28:53;;;;;;;55.30;20.20;;;-2.00;1.00;;;;;;4943340;29;20540;-51
2021/12/23 01:31:19;;;;;;;46.47;17.97;;;-2.00;1.00;;;;;;4940660;28;20438;-51
2021/12/23 01:33:45;;;;;;;56.67;19.37;;;-2.00;99.90;;;;;;4941400;29;20442;-51
2021/12/23 01:36:11;;;;;;;50.90;18.20;;;-2.10;99.90;;;;;;4942464;29;20442;-51
2021/12/23 01:38:36;;;;;;;47.83;18.13;;;-2.10;1.00;;;;;;4941742;29;20445;-51
2021/12/23 01:41:02;;;;;;;48.20;18.03;;;-2.10;99.90;;;;;;4941981;29;20201;-51
2021/12/23 01:43:28;;;;;;;45.17;18.20;;;-2.10;1.00;;;;;;4941224;29;20594;-51
2021/12/23 01:45:53;;;;;;;42.20;17.33;;;-2.00;1.00;;;;;;4939412;28;20197;-51
2021/12/23 01:48:19;;;;;;;56.20;19.27;;;-2.10;1.00;;;;;;4943720;29;20209;-51
2021/12/23 01:50:45;;;;;;;46.00;19.40;;;-2.00;1.00;;;;;;4942550;29;20918;-51
2021/12/23 01:53:11;;;;;;;49.43;18.60;;;-2.10;1.00;;;;;;4941568;29;20209;-51
2021/12/23 01:55:38;;;;;;;44.57;17.97;;;-2.10;1.00;;;;;;4940415;29;20449;-51
2021/12/23 01:58:06;;;;;;;50.50;19.07;;;-2.10;1.00;;;;;;4942571;29;20193;-51
2021/12/23 02:00:34;;;;;;;49.73;19.87;;;-1.90;99.90;;;;;;4943467;29;20453;-51
2021/12/23 02:03:01;;;;;;;43.03;17.67;;;-1.90;99.90;;;;;;4939026;29;21302;-51
2021/12/23 02:05:27;;;;;;;47.00;19.93;;;-2.00;99.90;;;;;;4940505;29;20453;-51
2021/12/23 02:07:53;;;;;;;46.50;18.17;;;-2.00;1.00;;;;;;4942080;29;20452;-51
2021/12/23 02:10:19;;;;;;;48.40;17.80;;;-1.90;1.00;;;;;;4941731;29;20467;-51
2021/12/23 02:12:47;;;;;;;42.50;17.90;;;-2.00;99.90;;;;;;4941825;29;20481;-51
2021/12/23 02:15:14;;;;;;;54.50;20.20;;;-2.00;99.90;;;;;;4944062;29;20476;-51
2021/12/23 02:17:41;;;;;;;41.60;17.80;;;-2.00;99.90;;;;;;4941745;29;20598;-51
2021/12/23 02:20:13;;;;;;;38.30;16.23;;;-2.00;99.90;;;;;;4939846;29;20923;-51
2021/12/23 02:22:41;;;;;;;40.83;17.80;;;-2.00;99.90;;;;;;4939410;29;20588;-51
2021/12/23 02:25:08;;;;;;;46.73;19.43;;;-2.00;99.90;;;;;;4940891;29;20442;-50
2021/12/23 02:27:34;;;;;;;41.13;19.63;;;-2.00;99.90;;;;;;4943095;29;20472;-51
2021/12/23 02:30:02;;;;;;;43.33;18.00;;;-1.90;99.90;;;;;;4940262;29;20446;-51
2021/12/23 02:32:27;;;;;;;50.23;19.47;;;-2.00;99.90;;;;;;4942519;29;20473;-52
2021/12/23 02:34:53;;;;;;;39.90;17.43;;;-1.90;99.90;;;;;;4944912;29;20444;-51
2021/12/23 02:37:18;;;;;;;42.60;18.50;;;-1.90;99.90;;;;;;4940503;28;20531;-51
2021/12/23 02:39:44;;;;;;;45.60;18.67;;;-2.00;99.90;;;;;;4937848;29;20198;-51
2021/12/23 02:42:10;;;;;;;39.87;18.17;;;-2.00;99.90;;;;;;4939685;28;20344;-51
2021/12/23 02:44:35;;;;;;;45.03;18.40;;;-1.90;99.90;;;;;;4945118;29;20257;-51
2021/12/23 02:47:01;;;;;;;46.87;17.00;;;-1.90;99.90;;;;;;4943018;29;20873;-51
2021/12/23 02:49:27;;;;;;;47.53;18.60;;;-1.90;99.90;;;;;;4942057;29;20230;-50
2021/12/23 02:51:53;;;;;;;42.93;17.00;;;-1.80;99.90;;;;;;4927827;29;20858;-51
2021/12/23 02:54:19;;;;;;;47.27;18.20;;;-1.80;99.90;;;;;;4946103;29;20207;-50
2021/12/23 02:56:45;;;;;;;43.80;18.10;;;-1.80;1.00;;;;;;4944950;28;20449;-51
2021/12/23 02:59:10;;;;;;;41.03;17.23;;;-1.70;1.00;;;;;;4943525;29;20459;-56
2021/12/23 03:01:36;;;;;;;45.47;18.70;;;-1.70;99.90;;;;;;4949107;29;20508;-51
2021/12/23 03:04:02;;;;;;;40.00;18.33;;;-1.70;99.90;;;;;;4942172;29;20293;-51
2021/12/23 03:06:28;;;;;;;45.80;17.87;;;-1.80;99.90;;;;;;4942195;29;20450;-51
2021/12/23 03:09:00;;;;;;;41.17;17.87;;;-1.80;1.00;;;;;;4944094;29;20442;-50
2021/12/23 03:11:28;;;;;;;43.50;17.93;;;-1.80;99.90;;;;;;4945032;29;20539;-51
2021/12/23 03:13:55;;;;;;;38.10;17.40;;;-1.70;99.90;;;;;;4944139;29;20528;-51
2021/12/23 03:16:28;;;;;;;43.53;18.00;;;-1.80;99.90;;;;;;4945346;29;20455;-52
2021/12/23 03:18:53;;;;;;;39.00;17.67;;;-1.80;99.90;;;;;;4944525;29;20438;-52
2021/12/23 03:21:19;;;;;;;43.57;18.07;;;-1.70;99.90;;;;;;4941827;29;20447;-50
2021/12/23 03:23:46;;;;;;;47.50;18.20;;;-1.70;99.90;;;;;;4944226;29;20230;-51
2021/12/23 03:26:13;;;;;;;43.23;17.37;;;-1.80;91.40;;;;;;4941828;29;20446;-51
2021/12/23 03:28:38;;;;;;;45.20;18.30;;;-1.80;85.40;;;;;;4947629;29;20453;-51
2021/12/23 03:31:05;;;;;;;47.03;18.30;;;-1.80;99.00;;;;;;4943809;29;20446;-51
2021/12/23 03:33:31;;;;;;;40.30;17.90;;;-1.80;99.90;;;;;;4950342;28;20209;-51
2021/12/23 03:35:56;;;;;;;41.47;17.20;;;-1.80;99.90;;;;;;4942217;29;20523;-51
2021/12/23 03:38:23;;;;;;;45.53;17.40;;;-1.80;27.60;;;;;;4943477;29;20237;-51
2021/12/23 03:40:49;;;;;;;49.83;17.43;;;-1.80;99.90;;;;;;4941478;29;20241;-51
2021/12/23 03:43:16;;;;;;;39.93;17.40;;;-1.70;99.90;;;;;;4944331;29;20508;-51
2021/12/23 03:45:43;;;;;;;42.10;18.50;;;-1.70;99.90;;;;;;4943786;29;20469;-51
2021/12/23 03:48:10;;;;;;;43.53;18.13;;;-1.70;21.90;;;;;;4941340;29;20951;-51
2021/12/23 03:50:35;;;;;;;41.60;17.37;;;-1.70;45.50;;;;;;4943045;29;20525;-51
2021/12/23 03:53:02;;;;;;;37.50;16.87;;;-1.80;99.90;;;;;;4940342;29;20544;-52
2021/12/23 03:55:27;;;;;;;40.70;18.47;;;-1.80;99.90;;;;;;4945695;29;20504;-51
2021/12/23 04:07:54;;;;;;;40.10;16.77;;;-1.70;1.00;;;;;;4907522;28;20436;-51
2021/12/23 08:13:09;;;;;;;36.90;18.23;;;-1.10;99.90;;;;;;5031816;23;20593;-52
2021/12/23 08:15:34;;;;;;;41.20;19.10;;;-1.10;1.00;;;;;;5015561;28;20759;-52
2021/12/23 08:18:00;;;;;;;36.97;17.13;;;-1.10;1.00;;;;;;5019039;28;20187;-52
2021/12/23 08:20:25;;;;;;;50.97;18.80;;;-1.00;1.00;;;;;;5018369;28;20188;-52
2021/12/23 08:22:51;;;;;;;38.30;19.33;;;-1.00;11.50;;;;;;5018899;28;20688;-52
2021/12/23 08:25:17;;;;;;;35.23;18.33;;;-1.00;99.90;;;;;;5020453;28;20199;-49
2021/12/23 08:27:44;;;;;;;37.17;17.93;;;-0.90;99.90;;;;;;5018852;28;20195;-52
2021/12/23 08:30:12;;;;;;;38.13;18.33;;;-0.90;99.90;;;;;;5021493;28;20194;-52
2021/12/23 08:32:38;;;;;;;37.30;17.70;;;-0.80;99.90;;;;;;5020279;28;20533;-52
2021/12/23 08:35:07;;;;;;;37.17;18.30;;;-0.70;99.90;;;;;;5021044;28;20591;-52
2021/12/23 08:37:32;;;;;;;43.70;18.00;;;-0.70;1.00;;;;;;5020066;28;20438;-52
2021/12/23 08:39:58;;;;;;;41.97;20.03;;;-0.70;1.00;;;;;;5019482;28;20961;-51
2021/12/23 08:42:23;;;;;;;35.90;17.93;;;-0.60;1.00;;;;;;5020099;28;20216;-53
2021/12/23 08:44:49;;;;;;;34.80;17.60;;;-0.60;1.00;;;;;;5019562;28;20249;-54
2021/12/23 08:47:15;;;;;;;38.53;17.90;;;-0.50;1.00;;;;;;5020758;28;20879;-53
2021/12/23 08:49:45;;;;;;;41.93;19.20;;;-0.50;1.00;;;;;;5018360;28;20202;-52
2021/12/23 08:52:12;;;;;;;32.87;16.97;;;-0.50;99.90;;;;;;5019528;28;20709;-51
2021/12/23 08:54:40;;;;;;;40.30;18.73;;;-0.40;1.00;;;;;;5019779;28;20853;-52
2021/12/23 08:57:06;;;;;;;39.10;17.70;;;-0.40;1.00;;;;;;5019978;28;20426;-52
2021/12/23 08:59:32;;;;;;;39.70;18.80;;;-0.30;99.90;;;;;;5016257;28;20447;-52
2021/12/23 09:01:58;;;;;;;36.80;17.37;;;-0.30;99.90;;;;;;5016784;28;20188;-53
2021/12/23 09:04:24;;;;;;;37.80;19.13;;;-0.30;99.90;;;;;;5018847;28;20434;-52
2021/12/23 09:06:50;;;;;;;46.20;18.93;;;-0.20;10.60;;;;;;5018546;28;20491;-52
2021/12/23 09:09:16;;;;;;;41.90;19.00;;;-0.20;1.00;;;;;;5018885;28;20217;-52
2021/12/23 09:11:42;;;;;;;34.73;17.43;;;-0.10;1.00;;;;;;5015984;28;20490;-52
2021/12/23 09:14:09;;;;;;;38.27;19.13;;;0.00;1.00;;;;;;5022047;28;20438;-52
2021/12/23 09:16:35;;;;;;;39.40;18.30;;;0.00;1.00;;;;;;5018225;28;20979;-52
2021/12/23 09:19:01;;;;;;;35.83;18.03;;;0.10;1.00;;;;;;5018029;28;20470;-52
2021/12/23 09:21:27;;;;;;;34.43;17.63;;;0.10;1.00;;;;;;5019798;28;20443;-52
2021/12/23 09:23:52;;;;;;;32.07;17.20;;;0.10;99.90;;;;;;5017721;28;20466;-51
2021/12/23 09:26:18;;;;;;;34.77;17.90;;;0.20;99.90;;;;;;5018481;28;21126;-52
2021/12/23 09:28:57;;;;;;;36.60;18.17;;;0.20;99.90;;;;;;5020089;28;20207;-52
2021/12/23 09:34:08;;;;;;;44.03;18.33;;;0.30;1.00;;;;;;5017260;28;20569;-52
2021/12/23 09:36:33;;;;;;;34.90;17.83;;;0.50;1.00;;;;;;5016022;28;20429;-52
2021/12/23 09:38:59;;;;;;;33.67;17.67;;;0.40;1.00;;;;;;5017895;28;20925;-52
2021/12/23 09:41:27;;;;;;;35.53;17.10;;;0.40;1.00;;;;;;5019148;28;20207;-52
2021/12/23 09:43:56;;;;;;;37.73;17.83;;;0.50;1.00;;;;;;5016203;28;20536;-52
2021/12/23 09:46:22;;;;;;;33.17;18.30;;;0.40;1.00;;;;;;5018398;28;20429;-52
2021/12/23 09:48:48;;;;;;;37.33;18.37;;;0.50;1.00;;;;;;5018397;28;20425;-52
2021/12/23 09:51:18;;;;;;;34.50;17.63;;;0.50;1.00;;;;;;5018697;28;20435;-52
2021/12/23 09:53:45;;;;;;;40.03;17.70;;;0.50;1.00;;;;;;5016543;28;20434;-53
2021/12/23 09:56:11;;;;;;;39.63;18.73;;;0.50;1.00;;;;;;5017484;28;20441;-52
2021/12/23 09:58:37;;;;;;;35.10;17.47;;;0.50;1.00;;;;;;5017471;28;20447;-51
2021/12/23 10:01:04;;;;;;;42.50;18.20;;;0.60;1.00;;;;;;5018634;28;20441;-52
2021/12/23 10:03:30;;;;;;;32.97;18.87;;;0.60;1.00;;;;;;5018198;28;20217;-51
2021/12/23 10:05:58;;;;;;;37.50;18.00;;;0.60;1.00;;;;;;5017797;28;20434;-51
2021/12/23 10:08:26;;;;;;;38.23;18.73;;;0.70;1.00;;;;;;5019515;28;20596;-53
2021/12/23 10:10:57;;;;;;;39.20;18.70;;;0.70;1.00;;;;;;5018093;28;20450;-49
2021/12/23 10:32:56;;;;;;;34.27;17.00;;;0.80;99.90;;;;;;5017343;28;20442;-50
2021/12/23 10:38:30;;;;;;;29.53;16.50;;;0.70;99.90;;;;;;5018151;28;20529;-51
2021/12/23 10:41:00;;;;;;;42.40;17.70;;;0.70;99.90;;;;;;5016545;28;20433;-51
2021/12/23 10:43:26;;;;;;;33.10;17.73;;;0.80;99.90;;;;;;5018157;28;20562;-52
2021/12/23 10:45:55;;;;;;;36.87;18.00;;;0.70;99.90;;;;;;5019369;28;20528;-52
2021/12/23 10:48:23;;;;;;;32.93;17.00;;;0.70;99.90;;;;;;5017422;28;20183;-53
2021/12/23 10:50:55;;;;;;;36.60;18.67;;;0.70;99.90;;;;;;5018180;28;20434;-51
2021/12/23 10:53:55;;;;;;;40.73;18.43;;;0.70;99.90;;;;;;5018597;28;20425;-51
2021/12/23 10:59:16;;;;;;;35.60;16.50;;;0.70;99.90;;;;;;5013999;28;20524;-52
2021/12/23 11:02:02;;;;;;;34.90;17.63;;;0.70;99.90;;;;;;5017171;28;20444;-51
2021/12/23 11:04:33;;;;;;;34.47;16.70;;;0.70;99.90;;;;;;5019039;28;20957;-51
2021/12/23 11:07:17;;;;;;;37.47;18.73;;;0.70;1.00;;;;;;5021107;28;20442;-52
2021/12/23 11:10:24;;;;;;;37.33;19.87;;;0.70;1.00;;;;;;5020551;28;20423;-51
2021/12/23 11:35:43;;;;;;;47.30;19.83;;;1.00;99.90;;;;;;5019841;28;20969;-49
2021/12/23 11:37:54;;;;;;;38.53;18.70;;;1.00;99.90;;;;;;5019364;28;20802;-49
2021/12/23 11:45:48;;;;;;;37.30;18.90;;;1.10;99.90;;;;;;5018444;28;20442;-49
2021/12/23 11:48:15;;;;;;;35.90;18.60;;;1.10;99.90;;;;;;5020328;28;20199;-50
2021/12/23 11:50:53;;;;;;;39.33;18.50;;;1.20;52.10;;;;;;5018116;28;20442;-50
2021/12/23 11:53:21;;;;;;;37.47;17.10;;;1.20;59.20;;;;;;5019672;28;20521;-49
2021/12/23 11:55:47;;;;;;;34.90;18.33;;;1.30;1.00;;;;;;5021572;28;20461;-49
2021/12/23 11:58:14;;;;;;;34.00;17.97;;;1.30;1.00;;;;;;5019931;28;20497;-49
2021/12/23 12:00:43;;;;;;;33.63;17.93;;;1.30;1.00;;;;;;5020329;28;20508;-50
2021/12/23 12:03:10;;;;;;;35.53;17.90;;;1.20;1.00;;;;;;5015019;28;20481;-49
2021/12/23 12:05:37;;;;;;;35.60;17.40;;;1.20;1.00;;;;;;5020587;28;20441;-50
2021/12/23 12:08:10;;;;;;;32.40;16.40;;;1.30;1.00;;;;;;5021439;28;20437;-50
2021/12/23 12:10:37;;;;;;;36.90;17.60;;;1.20;1.00;;;;;;5020031;28;20446;-50
2021/12/23 12:13:10;;;;;;;30.63;17.03;;;1.30;1.00;;;;;;5020636;28;20535;-51
2021/12/23 12:15:38;;;;;;;32.03;16.50;;;1.30;1.00;;;;;;5019522;28;20541;-51
2021/12/23 12:18:16;;;;;;;33.90;17.83;;;1.30;1.00;;;;;;5018888;28;20469;-50
2021/12/23 12:20:49;;;;;;;36.67;18.10;;;1.30;1.00;;;;;;5020785;28;21004;-51
2021/12/23 12:23:33;;;;;;;35.93;16.67;;;1.30;1.00;;;;;;5019172;28;20473;-51
2021/12/23 12:26:10;;;;;;;36.90;19.90;;;1.30;1.00;;;;;;5020653;28;20768;-51
2021/12/23 12:28:43;;;;;;;32.90;17.90;;;1.30;1.00;;;;;;5022335;28;20475;-51
2021/12/23 12:31:18;;;;;;;30.80;16.87;;;1.30;1.00;;;;;;5017245;28;20461;-51
2021/12/23 12:34:05;;;;;;;32.10;17.03;;;1.30;1.00;;;;;;5019883;28;20465;-50
2021/12/23 12:36:31;;;;;;;40.20;17.70;;;1.40;1.00;;;;;;5019220;28;20537;-50
2021/12/23 12:39:15;;;;;;;31.70;17.47;;;1.40;1.00;;;;;;5019102;28;20472;-51
2021/12/23 12:41:41;;;;;;;35.63;18.83;;;1.40;1.00;;;;;;5020731;28;20443;-51
2021/12/23 12:44:33;;;;;;;38.10;18.90;;;1.30;1.00;;;;;;5019721;28;20552;-51
2021/12/23 12:47:06;;;;;;;36.83;19.70;;;1.30;1.00;;;;;;5018255;28;20548;-51
2021/12/23 12:49:44;;;;;;;34.37;17.00;;;1.30;1.00;;;;;;5018493;28;20938;-51
2021/12/23 12:52:11;;;;;;;35.60;18.73;;;1.20;1.00;;;;;;5019535;28;20421;-51
2021/12/23 12:55:00;;;;;;;41.80;19.90;;;1.20;1.00;;;;;;5018713;28;20426;-51
2021/12/23 12:57:33;;;;;;;34.77;19.27;;;1.20;1.00;;;;;;5018972;28;20767;-51
2021/12/23 13:00:16;;;;;;;38.13;19.60;;;1.20;1.00;;;;;;5015502;28;20526;-51
2021/12/23 13:03:08;;;;;;;36.53;18.93;;;1.20;1.00;;;;;;5017627;28;20801;-51
2021/12/23 13:05:41;;;;;;;35.10;19.17;;;1.20;1.00;;;;;;5016465;28;20443;-51
2021/12/23 13:08:30;;;;;;;34.60;18.37;;;1.10;1.00;;;;;;5018398;28;20441;-51
2021/12/23 13:11:07;;;;;;;40.03;18.43;;;1.00;48.50;;;;;;5017102;28;20446;-52
2021/12/23 13:13:41;;;;;;;38.00;18.83;;;1.00;99.90;;;;;;5021504;28;20449;-52
2021/12/23 13:16:14;;;;;;;41.17;19.83;;;0.90;99.90;;;;;;5019459;28;20427;-53
2021/12/23 13:18:40;;;;;;;33.47;18.20;;;0.90;1.00;;;;;;5015982;28;20561;-52
2021/12/23 13:21:06;;;;;;;40.10;20.57;;;0.90;1.00;;;;;;5016054;28;20536;-49
2021/12/23 13:23:43;;;;;;;44.03;21.33;;;0.80;1.00;;;;;;5012696;28;20979;-52
2021/12/23 13:26:20;;;;;;;40.40;20.50;;;0.80;19.70;;;;;;5011444;28;20442;-52
2021/12/23 13:28:50;;;;;;;38.80;19.97;;;0.80;99.90;;;;;;5026949;28;20422;-52
2021/12/23 13:31:29;;;;;;;39.43;20.23;;;0.70;99.90;;;;;;5019970;28;20442;-53
2021/12/23 13:33:59;;;;;;;41.50;22.30;;;0.70;1.00;;;;;;5011547;28;20477;-52
2021/12/23 13:36:29;;;;;;;43.23;20.90;;;0.70;1.00;;;;;;5012955;28;20629;-53
2021/12/23 13:38:58;;;;;;;44.10;21.27;;;0.60;99.90;;;;;;5014444;28;20461;-52
2021/12/23 13:41:32;;;;;;;47.70;23.07;;;0.60;1.00;;;;;;5016074;28;20509;-53
2021/12/23 13:44:16;;;;;;;44.47;21.77;;;0.60;1.00;;;;;;5014713;28;20530;-58
2021/12/23 13:46:57;;;;;;;40.00;21.20;;;0.60;99.90;;;;;;5013640;28;20439;-52
2021/12/23 13:49:39;;;;;;;44.83;22.40;;;0.50;99.90;;;;;;5016458;28;20922;-53
2021/12/23 13:52:09;;;;;;;48.10;21.60;;;0.50;20.00;;;;;;5016414;28;20976;-53
2021/12/23 13:54:37;;;;;;;46.10;23.30;;;0.50;99.90;;;;;;5013333;28;20441;-53
2021/12/23 13:57:10;;;;;;;44.33;22.60;;;0.60;1.00;;;;;;5012739;28;20441;-53
2021/12/23 13:59:36;;;;;;;53.17;23.67;;;0.60;1.00;;;;;;4999611;28;20461;-53
2021/12/23 14:02:07;;;;;;;52.63;23.53;;;0.60;1.00;;;;;;5015821;28;20450;-54
2021/12/23 14:04:52;;;;;;;55.73;24.37;;;0.50;1.00;;;;;;5016509;28;20187;-53
2021/12/23 14:07:19;;;;;;;52.73;23.30;;;0.60;99.90;;;;;;5014865;28;20439;-57
2021/12/23 14:10:05;;;;;;;51.70;25.37;;;0.50;1.00;;;;;;5015327;28;21046;-54
2021/12/23 14:12:46;;;;;;;46.50;23.30;;;0.50;99.90;;;;;;5018662;28;20556;-55
2021/12/23 14:15:18;;;;;;;47.77;24.30;;;0.50;25.90;;;;;;5016697;28;20438;-54
2021/12/23 14:17:46;;;;;;;48.13;23.70;;;0.50;1.00;;;;;;5014894;28;20466;-53
2021/12/23 14:23:12;;;;;;;49.27;24.33;;;0.60;99.90;;;;;;5018788;28;20520;-55
2021/12/23 14:25:50;;;;;;;50.17;24.00;;;0.60;99.90;;;;;;5015115;28;20423;-49
2021/12/23 14:28:19;;;;;;;56.37;26.53;;;0.50;1.00;;;;;;5014798;28;20572;-49
2021/12/23 14:30:53;;;;;;;53.27;26.03;;;0.50;1.00;;;;;;5019003;28;20434;-49
2021/12/23 14:33:25;;;;;;;56.13;24.37;;;0.40;1.00;;;;;;5019997;28;20440;-49
2021/12/23 14:35:55;;;;;;;51.30;23.93;;;0.40;1.00;;;;;;5016226;28;20489;-49
2021/12/23 14:38:35;;;;;;;54.10;26.77;;;0.40;1.00;;;;;;5017687;28;20869;-50
2021/12/23 14:41:08;;;;;;;53.83;25.97;;;0.50;1.00;;;;;;5016113;28;20465;-50
2021/12/23 14:44:00;;;;;;;53.13;25.10;;;0.60;1.00;;;;;;5019870;28;20469;-49
2021/12/23 14:46:38;;;;;;;48.33;23.90;;;0.50;99.90;;;;;;5022289;28;20441;-49
2021/12/23 14:51:37;;;;;;;52.70;25.20;;;0.70;1.00;;;;;;5020071;28;20453;-49
2021/12/23 14:54:16;;;;;;;55.27;26.13;;;0.80;1.00;;;;;;5017426;28;20446;-49
2021/12/23 14:56:45;;;;;;;51.37;25.10;;;0.80;99.90;;;;;;5021280;28;20480;-49
2021/12/23 14:59:12;;;;;;;51.90;25.30;;;0.70;1.00;;;;;;5021579;28;20439;-49
2021/12/23 15:01:41;;;;;;;53.97;25.07;;;0.70;1.00;;;;;;5017064;28;20434;-49
2021/12/23 15:04:15;;;;;;;54.60;27.40;;;0.70;16.80;;;;;;5014800;28;20466;-49
2021/12/23 15:07:02;;;;;;;50.73;25.27;;;0.70;1.00;;;;;;5018038;28;20500;-49
2021/12/23 15:09:31;;;;;;;54.30;26.47;;;0.70;99.90;;;;;;5023489;28;20453;-49
2021/12/23 15:12:08;;;;;;;52.67;26.43;;;0.70;99.90;;;;;;5016091;28;21062;-49
2021/12/23 15:14:47;;;;;;;51.43;25.47;;;0.70;99.90;;;;;;5019479;28;20564;-49
2021/12/23 15:17:19;;;;;;;49.80;25.20;;;0.70;99.90;;;;;;5024773;28;20441;-48
2021/12/23 15:19:50;;;;;;;58.57;27.50;;;0.80;1.00;;;;;;5019215;28;20422;-48
2021/12/23 15:22:23;;;;;;;54.50;25.50;;;0.80;38.30;;;;;;5019495;28;20438;-48
2021/12/23 15:25:07;;;;;;;58.00;27.40;;;0.70;99.90;;;;;;5019329;28;20454;-48
2021/12/23 15:27:38;;;;;;;57.63;27.33;;;0.70;99.90;;;;;;5018604;28;20449;-48
2021/12/23 15:30:13;;;;;;;56.70;27.00;;;0.70;99.90;;;;;;5023277;28;20442;-49
2021/12/23 15:32:38;;;;;;;59.13;28.20;;;0.70;99.90;;;;;;5016988;28;20542;-53
2021/12/23 15:35:12;;;;;;;57.83;29.27;;;0.70;1.00;;;;;;5020143;28;20593;-48
2021/12/23 15:37:40;;;;;;;54.00;26.43;;;0.70;1.00;;;;;;5018978;28;21015;-48
2021/12/23 15:40:18;;;;;;;61.40;27.60;;;0.80;1.00;;;;;;5020223;28;20450;-47
2021/12/23 15:42:44;;;;;;;54.97;26.47;;;0.80;99.90;;;;;;5018949;28;20474;-49
2021/12/23 15:45:10;;;;;;;59.70;27.03;;;0.80;99.90;;;;;;5017419;28;20447;-48
2021/12/23 15:47:37;;;;;;;55.37;27.17;;;0.80;99.90;;;;;;5016852;28;20258;-48
2021/12/23 15:50:05;;;;;;;56.07;27.50;;;0.80;99.90;;;;;;5019549;28;20450;-48
2021/12/23 15:52:31;;;;;;;53.23;26.70;;;0.80;99.90;;;;;;5017196;28;20453;-48
2021/12/23 15:54:56;;;;;;;56.07;26.80;;;0.80;99.90;;;;;;5018604;28;20996;-48
2021/12/23 15:57:22;;;;;;;54.57;27.00;;;0.80;99.90;;;;;;5022300;28;20252;-47
2021/12/23 15:59:51;;;;;;;54.77;27.63;;;0.80;99.90;;;;;;5020379;28;20210;-49
2021/12/23 16:02:23;;;;;;;51.23;26.90;;;0.80;99.90;;;;;;5022894;28;20927;-48
2021/12/23 16:07:32;;;;;;;61.33;27.10;;;0.80;1.00;;;;;;5020057;28;20433;-48
2021/12/23 16:09:59;;;;;;;60.80;28.13;;;0.80;1.00;;;;;;5019867;28;20443;-48
2021/12/23 16:12:28;;;;;;;57.87;27.33;;;0.90;1.00;;;;;;5020235;28;20536;-47
2021/12/23 16:14:56;;;;;;;52.47;27.53;;;0.80;1.00;;;;;;5022338;28;20537;-48
2021/12/23 16:17:23;;;;;;;60.30;28.17;;;0.90;1.00;;;;;;5018905;28;20442;-47
2021/12/23 16:19:49;;;;;;;55.23;28.87;;;0.90;1.00;;;;;;5024827;28;20439;-48
2021/12/23 16:22:15;;;;;;;60.27;28.40;;;0.90;1.00;;;;;;5019557;28;20430;-47
2021/12/23 16:24:41;;;;;;;61.40;29.17;;;0.90;1.00;;;;;;5021800;28;20468;-47
2021/12/23 16:27:08;;;;;;;61.03;29.70;;;0.80;1.00;;;;;;5025769;28;20433;-48
2021/12/23 16:30:00;;;;;;;57.87;27.07;;;0.90;1.00;;;;;;5020558;28;20445;-50
2021/12/23 16:32:26;;;;;;;58.73;28.80;;;0.90;1.00;;;;;;5025471;28;20952;-47
2021/12/23 16:34:52;;;;;;;57.20;29.27;;;1.00;1.00;;;;;;5009401;28;20441;-47
2021/12/23 16:37:20;;;;;;;62.87;29.07;;;0.90;1.00;;;;;;5004096;28;20438;-46
2021/12/23 16:39:49;;;;;;;53.70;27.03;;;0.90;1.00;;;;;;5019205;28;20796;-47
2021/12/23 16:42:15;;;;;;;54.17;27.23;;;0.90;1.00;;;;;;5025001;28;20441;-47
2021/12/23 16:44:40;;;;;;;56.97;28.37;;;0.90;1.00;;;;;;5021885;28;20449;-47
2021/12/23 16:47:06;;;;;;;63.40;28.67;;;1.00;1.00;;;;;;5024307;28;20224;-47
2021/12/23 16:49:31;;;;;;;55.23;27.73;;;1.00;1.00;;;;;;5025232;28;20204;-47
2021/12/23 16:51:57;;;;;;;56.03;28.73;;;0.90;1.00;;;;;;5021804;28;20198;-47
2021/12/23 16:54:22;;;;;;;54.70;28.50;;;0.90;1.00;;;;;;5029236;28;20198;-48
2021/12/23 16:59:33;;;;;;;56.37;27.07;;;1.00;1.00;;;;;;5024501;28;20666;-47
2021/12/23 17:01:59;;;;;;;61.00;28.73;;;1.00;1.00;;;;;;5024690;28;20835;-47
2021/12/23 17:04:26;;;;;;;57.03;29.60;;;1.00;1.00;;;;;;5021824;28;20474;-47
2021/12/23 17:06:55;;;;;;;72.57;29.20;;;1.00;1.00;;;;;;5026999;28;20937;-47
2021/12/23 17:09:23;;;;;;;66.07;29.23;;;1.00;1.00;;;;;;5025802;28;20430;-48
2021/12/23 17:11:50;;;;;;;58.23;29.07;;;1.00;1.00;;;;;;5018919;28;20524;-50
2021/12/23 17:14:16;;;;;;;61.83;29.50;;;1.00;1.00;;;;;;4987517;28;20445;-48
2021/12/23 17:16:42;;;;;;;63.00;30.07;;;1.00;1.00;;;;;;5004587;28;20943;-47
2021/12/23 17:19:12;;;;;;;63.63;30.47;;;0.90;1.00;;;;;;5024771;28;20438;-47
2021/12/23 17:21:49;;;;;;;68.53;31.10;;;1.00;1.00;;;;;;5024769;28;20198;-48
2021/12/23 17:24:27;;;;;;;74.30;30.63;;;1.00;1.00;;;;;;5027328;28;20492;-47
2021/12/23 17:26:54;;;;;;;64.90;29.30;;;1.00;1.00;;;;;;5017794;28;20438;-47
2021/12/23 17:29:20;;;;;;;62.73;30.97;;;1.00;1.00;;;;;;5028182;28;20422;-47
2021/12/23 17:31:46;;;;;;;68.93;30.17;;;1.00;1.00;;;;;;5024948;28;20427;-48
2021/12/23 17:34:12;;;;;;;60.23;28.50;;;1.00;1.00;;;;;;5025993;28;20868;-48
2021/12/23 17:36:38;;;;;;;66.10;30.80;;;1.00;1.00;;;;;;5026535;28;20350;-47
2021/12/23 17:39:05;;;;;;;81.73;31.10;;;1.00;1.00;;;;;;5023759;28;20198;-48
2021/12/23 17:41:31;;;;;;;63.23;29.30;;;1.00;4.50;;;;;;5023724;28;20441;-47
2021/12/23 17:43:56;;;;;;;72.67;31.90;;;1.00;16.70;;;;;;5025422;28;20465;-47
2021/12/23 17:46:22;;;;;;;64.67;29.50;;;0.90;30.10;;;;;;5023540;28;20199;-47
2021/12/23 17:48:48;;;;;;;63.60;30.20;;;1.00;46.80;;;;;;5025477;28;20199;-48
2021/12/23 17:51:14;;;;;;;67.10;31.80;;;1.10;61.70;;;;;;5020837;28;20546;-48
2021/12/23 17:53:40;;;;;;;70.00;32.27;;;1.10;71.40;;;;;;5023287;28;20230;-47
2021/12/23 17:56:09;;;;;;;65.23;31.60;;;1.10;74.90;;;;;;5026914;28;20838;-47
2021/12/23 17:58:36;;;;;;;67.23;31.43;;;1.10;77.80;;;;;;5023568;28;20433;-47
2021/12/23 18:01:03;;;;;;;69.30;33.00;;;1.00;81.00;;;;;;5021341;28;20433;-48
2021/12/23 18:03:29;;;;;;;65.50;30.90;;;1.00;88.40;;;;;;5023697;28;20535;-48
2021/12/23 18:05:54;;;;;;;69.43;31.80;;;1.00;95.00;;;;;;5025340;28;20434;-47
2021/12/23 18:08:21;;;;;;;79.17;33.30;;;1.10;99.90;;;;;;5020273;28;20182;-47
2021/12/23 18:10:48;;;;;;;64.83;30.63;;;1.00;99.90;;;;;;5022940;28;20234;-47
2021/12/23 18:13:14;;;;;;;71.43;32.07;;;1.10;99.90;;;;;;4990075;28;20511;-47